sensor_id;sensor_type;location;lat;lon;timestamp;temperature;humidity
25352;DHT22;13304;48.464;8.712;2023-05-10T00:01:25;16.50;92.90
25352;DHT22;13304;48.464;8.712;2023-05-10T00:03:51;16.50;93.20
25352;DHT22;13304;48.464;8.712;2023-05-10T00:06:17;16.50;92.80
25352;DHT22;13304;48.464;8.712;2023-05-10T00:08:44;16.50;92.80
25352;DHT22;13304;48.464;8.712;2023-05-10T00:11:09;16.40;92.40
25352;DHT22;13304;48.464;8.712;2023-05-10T00:13:35;16.40;92.30
25352;DHT22;13304;48.464;8.712;2023-05-10T00:16:01;16.40;92.20
25352;DHT22;13304;48.464;8.712;2023-05-10T00:18:26;16.40;92.10
25352;DHT22;13304;48.464;8.712;2023-05-10T00:20:52;16.40;92.00
25352;DHT22;13304;48.464;8.712;2023-05-10T00:23:18;16.30;91.80
25352;DHT22;13304;48.464;8.712;2023-05-10T00:25:44;16.30;91.70
25352;DHT22;13304;48.464;8.712;2023-05-10T00:28:09;16.20;91.40
25352;DHT22;13304;48.464;8.712;2023-05-10T00:30:35;16.30;91.50
25352;DHT22;13304;48.464;8.712;2023-05-10T00:33:01;16.20;91.50
25352;DHT22;13304;48.464;8.712;2023-05-10T00:35:26;16.20;91.60
25352;DHT22;13304;48.464;8.712;2023-05-10T00:37:52;16.20;91.50
25352;DHT22;13304;48.464;8.712;2023-05-10T00:40:18;16.20;91.40
25352;DHT22;13304;48.464;8.712;2023-05-10T00:42:44;16.10;91.50
25352;DHT22;13304;48.464;8.712;2023-05-10T00:45:10;16.10;91.40
25352;DHT22;13304;48.464;8.712;2023-05-10T00:47:36;16.10;91.40
25352;DHT22;13304;48.464;8.712;2023-05-10T00:50:02;16.10;91.50
25352;DHT22;13304;48.464;8.712;2023-05-10T00:52:28;16.10;91.60
25352;DHT22;13304;48.464;8.712;2023-05-10T00:54:55;16.10;91.60
25352;DHT22;13304;48.464;8.712;2023-05-10T00:57:21;16.00;91.30
25352;DHT22;13304;48.464;8.712;2023-05-10T00:59:48;16.00;91.30
25352;DHT22;13304;48.464;8.712;2023-05-10T01:02:14;15.90;91.40
25352;DHT22;13304;48.464;8.712;2023-05-10T01:04:43;15.90;91.40
25352;DHT22;13304;48.464;8.712;2023-05-10T01:07:08;15.90;91.40
25352;DHT22;13304;48.464;8.712;2023-05-10T01:09:34;15.90;91.50
25352;DHT22;13304;48.464;8.712;2023-05-10T01:12:01;15.90;91.50
25352;DHT22;13304;48.464;8.712;2023-05-10T01:14:27;15.90;91.50
25352;DHT22;13304;48.464;8.712;2023-05-10T01:16:53;15.90;91.60
25352;DHT22;13304;48.464;8.712;2023-05-10T01:19:23;15.90;91.60
25352;DHT22;13304;48.464;8.712;2023-05-10T01:27:47;15.80;91.60
25352;DHT22;13304;48.464;8.712;2023-05-10T01:33:15;15.80;91.60
25352;DHT22;13304;48.464;8.712;2023-05-10T01:38:34;15.80;91.60
25352;DHT22;13304;48.464;8.712;2023-05-10T01:41:16;15.70;91.40
25352;DHT22;13304;48.464;8.712;2023-05-10T01:46:22;15.80;91.60
25352;DHT22;13304;48.464;8.712;2023-05-10T01:48:56;15.70;91.70
25352;DHT22;13304;48.464;8.712;2023-05-10T01:51:25;15.80;91.80
25352;DHT22;13304;48.464;8.712;2023-05-10T01:54:00;15.70;91.70
25352;DHT22;13304;48.464;8.712;2023-05-10T01:56:29;15.70;91.80
25352;DHT22;13304;48.464;8.712;2023-05-10T01:58:56;15.70;91.90
25352;DHT22;13304;48.464;8.712;2023-05-10T02:01:24;15.70;91.80
25352;DHT22;13304;48.464;8.712;2023-05-10T02:03:51;15.80;91.90
25352;DHT22;13304;48.464;8.712;2023-05-10T02:06:20;15.80;91.80
25352;DHT22;13304;48.464;8.712;2023-05-10T02:08:49;15.80;91.80
25352;DHT22;13304;48.464;8.712;2023-05-10T02:11:17;15.80;91.90
25352;DHT22;13304;48.464;8.712;2023-05-10T02:13:45;15.80;91.90
25352;DHT22;13304;48.464;8.712;2023-05-10T02:16:13;15.80;91.90
25352;DHT22;13304;48.464;8.712;2023-05-10T02:18:41;15.90;91.90
25352;DHT22;13304;48.464;8.712;2023-05-10T02:21:08;15.90;91.80
25352;DHT22;13304;48.464;8.712;2023-05-10T02:23:35;15.90;91.80
25352;DHT22;13304;48.464;8.712;2023-05-10T02:26:02;15.90;91.90
25352;DHT22;13304;48.464;8.712;2023-05-10T02:28:29;15.90;91.80
25352;DHT22;13304;48.464;8.712;2023-05-10T02:30:56;15.90;91.90
25352;DHT22;13304;48.464;8.712;2023-05-10T02:33:23;15.90;91.90
25352;DHT22;13304;48.464;8.712;2023-05-10T02:35:51;15.90;91.80
25352;DHT22;13304;48.464;8.712;2023-05-10T02:38:19;15.90;91.80
25352;DHT22;13304;48.464;8.712;2023-05-10T02:40:47;15.90;91.80
25352;DHT22;13304;48.464;8.712;2023-05-10T02:43:16;15.90;91.60
25352;DHT22;13304;48.464;8.712;2023-05-10T02:45:43;15.90;91.60
25352;DHT22;13304;48.464;8.712;2023-05-10T02:48:12;15.90;91.60
25352;DHT22;13304;48.464;8.712;2023-05-10T02:50:41;15.90;91.50
25352;DHT22;13304;48.464;8.712;2023-05-10T02:53:18;15.80;91.40
25352;DHT22;13304;48.464;8.712;2023-05-10T02:55:50;15.80;91.40
25352;DHT22;13304;48.464;8.712;2023-05-10T02:58:17;15.80;91.40
25352;DHT22;13304;48.464;8.712;2023-05-10T03:00:45;15.80;91.40
25352;DHT22;13304;48.464;8.712;2023-05-10T03:03:11;15.80;91.40
25352;DHT22;13304;48.464;8.712;2023-05-10T03:05:37;15.70;91.40
25352;DHT22;13304;48.464;8.712;2023-05-10T03:08:03;15.70;91.50
25352;DHT22;13304;48.464;8.712;2023-05-10T03:10:31;15.70;91.60
25352;DHT22;13304;48.464;8.712;2023-05-10T03:16:03;15.60;91.70
25352;DHT22;13304;48.464;8.712;2023-05-10T03:18:55;15.60;91.80
25352;DHT22;13304;48.464;8.712;2023-05-10T03:21:22;15.60;91.70
25352;DHT22;13304;48.464;8.712;2023-05-10T03:23:58;15.50;91.70
25352;DHT22;13304;48.464;8.712;2023-05-10T03:26:26;15.60;91.80
25352;DHT22;13304;48.464;8.712;2023-05-10T03:28:53;15.60;92.00
25352;DHT22;13304;48.464;8.712;2023-05-10T03:31:19;15.60;91.90
25352;DHT22;13304;48.464;8.712;2023-05-10T03:33:50;15.60;92.00
25352;DHT22;13304;48.464;8.712;2023-05-10T03:36:21;15.60;92.00
25352;DHT22;13304;48.464;8.712;2023-05-10T03:38:47;15.60;91.90
25352;DHT22;13304;48.464;8.712;2023-05-10T03:41:12;15.60;92.00
25352;DHT22;13304;48.464;8.712;2023-05-10T03:43:39;15.60;92.00
25352;DHT22;13304;48.464;8.712;2023-05-10T03:46:05;15.60;92.10
25352;DHT22;13304;48.464;8.712;2023-05-10T03:48:32;15.60;92.50
25352;DHT22;13304;48.464;8.712;2023-05-10T03:50:58;15.60;92.00
25352;DHT22;13304;48.464;8.712;2023-05-10T03:53:24;15.60;92.00
25352;DHT22;13304;48.464;8.712;2023-05-10T03:55:50;15.60;92.00
25352;DHT22;13304;48.464;8.712;2023-05-10T03:58:16;15.60;92.00
25352;DHT22;13304;48.464;8.712;2023-05-10T04:00:42;15.60;92.00
25352;DHT22;13304;48.464;8.712;2023-05-10T04:03:10;15.60;92.00
25352;DHT22;13304;48.464;8.712;2023-05-10T04:05:36;15.60;92.00
25352;DHT22;13304;48.464;8.712;2023-05-10T04:08:02;15.60;92.00
25352;DHT22;13304;48.464;8.712;2023-05-10T04:10:28;15.60;92.00
25352;DHT22;13304;48.464;8.712;2023-05-10T04:12:54;15.60;92.00
25352;DHT22;13304;48.464;8.712;2023-05-10T04:15:20;15.60;92.00
25352;DHT22;13304;48.464;8.712;2023-05-10T04:17:46;15.60;92.00
25352;DHT22;13304;48.464;8.712;2023-05-10T04:20:12;15.60;92.10
25352;DHT22;13304;48.464;8.712;2023-05-10T04:22:38;15.60;92.20
25352;DHT22;13304;48.464;8.712;2023-05-10T04:25:04;15.60;92.20
25352;DHT22;13304;48.464;8.712;2023-05-10T04:27:30;15.60;92.20
25352;DHT22;13304;48.464;8.712;2023-05-10T04:29:56;15.60;92.10
25352;DHT22;13304;48.464;8.712;2023-05-10T04:32:22;15.60;92.10
25352;DHT22;13304;48.464;8.712;2023-05-10T04:34:48;15.70;92.10
25352;DHT22;13304;48.464;8.712;2023-05-10T04:37:14;15.70;92.10
25352;DHT22;13304;48.464;8.712;2023-05-10T04:39:40;15.70;92.10
25352;DHT22;13304;48.464;8.712;2023-05-10T04:42:05;15.70;92.00
25352;DHT22;13304;48.464;8.712;2023-05-10T04:44:34;15.70;92.10
25352;DHT22;13304;48.464;8.712;2023-05-10T04:47:01;15.70;92.00
25352;DHT22;13304;48.464;8.712;2023-05-10T04:49:28;15.70;92.20
25352;DHT22;13304;48.464;8.712;2023-05-10T04:51:53;15.70;92.20
25352;DHT22;13304;48.464;8.712;2023-05-10T04:54:19;15.70;92.20
25352;DHT22;13304;48.464;8.712;2023-05-10T04:56:45;15.70;92.30
25352;DHT22;13304;48.464;8.712;2023-05-10T04:59:11;15.70;92.30
25352;DHT22;13304;48.464;8.712;2023-05-10T05:01:36;15.70;92.30
25352;DHT22;13304;48.464;8.712;2023-05-10T05:04:02;15.70;92.60
25352;DHT22;13304;48.464;8.712;2023-05-10T05:06:28;15.70;92.30
25352;DHT22;13304;48.464;8.712;2023-05-10T05:08:54;15.80;92.30
25352;DHT22;13304;48.464;8.712;2023-05-10T05:11:19;15.80;92.30
25352;DHT22;13304;48.464;8.712;2023-05-10T05:13:46;15.80;92.30
25352;DHT22;13304;48.464;8.712;2023-05-10T05:16:12;15.80;92.20
25352;DHT22;13304;48.464;8.712;2023-05-10T05:18:38;15.80;92.20
25352;DHT22;13304;48.464;8.712;2023-05-10T05:21:16;15.80;92.20
25352;DHT22;13304;48.464;8.712;2023-05-10T05:23:43;15.70;91.70
25352;DHT22;13304;48.464;8.712;2023-05-10T05:26:09;15.70;91.80
25352;DHT22;13304;48.464;8.712;2023-05-10T05:28:35;15.70;91.70
25352;DHT22;13304;48.464;8.712;2023-05-10T05:31:03;15.70;91.70
25352;DHT22;13304;48.464;8.712;2023-05-10T05:33:29;15.70;91.60
25352;DHT22;13304;48.464;8.712;2023-05-10T05:35:55;15.80;91.60
25352;DHT22;13304;48.464;8.712;2023-05-10T05:38:21;15.80;91.70
25352;DHT22;13304;48.464;8.712;2023-05-10T05:40:47;15.80;91.80
25352;DHT22;13304;48.464;8.712;2023-05-10T05:43:12;15.80;91.80
25352;DHT22;13304;48.464;8.712;2023-05-10T05:45:38;15.80;91.80
25352;DHT22;13304;48.464;8.712;2023-05-10T05:48:04;15.80;91.60
25352;DHT22;13304;48.464;8.712;2023-05-10T05:50:30;15.80;91.50
25352;DHT22;13304;48.464;8.712;2023-05-10T05:52:56;15.80;91.60
25352;DHT22;13304;48.464;8.712;2023-05-10T05:55:23;15.80;91.60
25352;DHT22;13304;48.464;8.712;2023-05-10T05:57:49;15.80;91.60
25352;DHT22;13304;48.464;8.712;2023-05-10T06:00:15;15.90;91.60
25352;DHT22;13304;48.464;8.712;2023-05-10T06:02:41;15.90;91.60
25352;DHT22;13304;48.464;8.712;2023-05-10T06:05:07;15.90;91.60
25352;DHT22;13304;48.464;8.712;2023-05-10T06:07:33;15.90;91.60
25352;DHT22;13304;48.464;8.712;2023-05-10T06:09:59;15.90;91.40
25352;DHT22;13304;48.464;8.712;2023-05-10T06:12:25;15.90;91.40
25352;DHT22;13304;48.464;8.712;2023-05-10T06:14:50;15.80;91.20
25352;DHT22;13304;48.464;8.712;2023-05-10T06:17:16;15.80;91.10
25352;DHT22;13304;48.464;8.712;2023-05-10T06:19:42;15.80;91.30
25352;DHT22;13304;48.464;8.712;2023-05-10T06:22:07;15.80;91.20
25352;DHT22;13304;48.464;8.712;2023-05-10T06:24:33;15.80;91.20
25352;DHT22;13304;48.464;8.712;2023-05-10T06:26:59;15.80;91.20
25352;DHT22;13304;48.464;8.712;2023-05-10T06:29:26;15.80;91.20
25352;DHT22;13304;48.464;8.712;2023-05-10T06:31:51;15.80;91.20
25352;DHT22;13304;48.464;8.712;2023-05-10T06:34:17;15.80;91.40
25352;DHT22;13304;48.464;8.712;2023-05-10T06:36:43;15.70;91.50
25352;DHT22;13304;48.464;8.712;2023-05-10T06:39:11;15.80;91.60
25352;DHT22;13304;48.464;8.712;2023-05-10T06:41:37;15.80;91.80
25352;DHT22;13304;48.464;8.712;2023-05-10T06:44:03;15.80;91.90
25352;DHT22;13304;48.464;8.712;2023-05-10T06:46:29;15.80;91.90
25352;DHT22;13304;48.464;8.712;2023-05-10T06:48:55;15.80;92.00
25352;DHT22;13304;48.464;8.712;2023-05-10T06:51:24;15.80;92.00
25352;DHT22;13304;48.464;8.712;2023-05-10T06:53:49;15.80;92.00
25352;DHT22;13304;48.464;8.712;2023-05-10T06:56:15;15.90;92.40
25352;DHT22;13304;48.464;8.712;2023-05-10T06:58:41;15.80;92.10
25352;DHT22;13304;48.464;8.712;2023-05-10T07:01:07;15.80;92.10
25352;DHT22;13304;48.464;8.712;2023-05-10T07:03:32;15.90;92.20
25352;DHT22;13304;48.464;8.712;2023-05-10T07:06:02;15.90;92.20
25352;DHT22;13304;48.464;8.712;2023-05-10T07:08:30;15.90;92.10
25352;DHT22;13304;48.464;8.712;2023-05-10T07:11:04;16.00;92.50
25352;DHT22;13304;48.464;8.712;2023-05-10T07:13:31;16.00;92.00
25352;DHT22;13304;48.464;8.712;2023-05-10T07:15:57;16.10;92.30
25352;DHT22;13304;48.464;8.712;2023-05-10T07:18:24;16.10;92.40
25352;DHT22;13304;48.464;8.712;2023-05-10T07:20:50;16.20;92.40
25352;DHT22;13304;48.464;8.712;2023-05-10T07:23:15;16.30;92.20
25352;DHT22;13304;48.464;8.712;2023-05-10T07:25:45;16.30;92.00
25352;DHT22;13304;48.464;8.712;2023-05-10T07:28:12;16.30;91.80
25352;DHT22;13304;48.464;8.712;2023-05-10T07:30:38;16.40;91.80
25352;DHT22;13304;48.464;8.712;2023-05-10T07:33:03;16.40;91.70
25352;DHT22;13304;48.464;8.712;2023-05-10T07:35:29;16.50;91.40
25352;DHT22;13304;48.464;8.712;2023-05-10T07:37:55;16.50;91.20
25352;DHT22;13304;48.464;8.712;2023-05-10T07:40:21;16.50;91.00
25352;DHT22;13304;48.464;8.712;2023-05-10T07:42:46;16.50;90.90
25352;DHT22;13304;48.464;8.712;2023-05-10T07:45:12;16.60;91.00
25352;DHT22;13304;48.464;8.712;2023-05-10T07:47:37;16.60;90.80
25352;DHT22;13304;48.464;8.712;2023-05-10T07:50:03;16.60;90.20
25352;DHT22;13304;48.464;8.712;2023-05-10T07:52:29;16.70;90.30
25352;DHT22;13304;48.464;8.712;2023-05-10T07:54:55;16.70;90.20
25352;DHT22;13304;48.464;8.712;2023-05-10T07:57:22;16.70;89.20
25352;DHT22;13304;48.464;8.712;2023-05-10T07:59:48;16.70;88.10
25352;DHT22;13304;48.464;8.712;2023-05-10T08:02:13;16.70;88.80
25352;DHT22;13304;48.464;8.712;2023-05-10T08:04:39;16.70;88.80
25352;DHT22;13304;48.464;8.712;2023-05-10T08:07:05;16.70;87.80
25352;DHT22;13304;48.464;8.712;2023-05-10T08:09:30;16.70;87.80
25352;DHT22;13304;48.464;8.712;2023-05-10T08:11:56;16.80;87.60
25352;DHT22;13304;48.464;8.712;2023-05-10T08:14:22;16.80;86.60
25352;DHT22;13304;48.464;8.712;2023-05-10T08:16:47;16.80;85.70
25352;DHT22;13304;48.464;8.712;2023-05-10T08:19:13;16.80;85.20
25352;DHT22;13304;48.464;8.712;2023-05-10T08:21:39;16.80;85.80
25352;DHT22;13304;48.464;8.712;2023-05-10T08:24:07;16.90;86.30
25352;DHT22;13304;48.464;8.712;2023-05-10T08:26:33;17.00;86.90
25352;DHT22;13304;48.464;8.712;2023-05-10T08:28:59;16.90;85.30
25352;DHT22;13304;48.464;8.712;2023-05-10T08:31:24;17.00;85.60
25352;DHT22;13304;48.464;8.712;2023-05-10T08:33:50;17.00;84.10
25352;DHT22;13304;48.464;8.712;2023-05-10T08:36:18;17.10;83.80
25352;DHT22;13304;48.464;8.712;2023-05-10T08:38:50;17.10;84.10
25352;DHT22;13304;48.464;8.712;2023-05-10T08:41:16;17.10;83.40
25352;DHT22;13304;48.464;8.712;2023-05-10T08:43:45;17.20;84.90
25352;DHT22;13304;48.464;8.712;2023-05-10T08:46:16;17.20;83.50
25352;DHT22;13304;48.464;8.712;2023-05-10T08:48:45;17.30;82.00
25352;DHT22;13304;48.464;8.712;2023-05-10T08:51:17;17.40;82.50
25352;DHT22;13304;48.464;8.712;2023-05-10T08:53:44;17.30;81.00
25352;DHT22;13304;48.464;8.712;2023-05-10T08:56:10;17.40;81.20
25352;DHT22;13304;48.464;8.712;2023-05-10T08:58:38;17.40;81.30
25352;DHT22;13304;48.464;8.712;2023-05-10T09:01:05;17.40;80.00
25352;DHT22;13304;48.464;8.712;2023-05-10T09:03:31;17.40;80.80
25352;DHT22;13304;48.464;8.712;2023-05-10T09:05:58;17.40;80.50
25352;DHT22;13304;48.464;8.712;2023-05-10T09:08:24;17.50;81.20
25352;DHT22;13304;48.464;8.712;2023-05-10T09:10:51;17.50;81.00
25352;DHT22;13304;48.464;8.712;2023-05-10T09:13:18;17.40;81.80
25352;DHT22;13304;48.464;8.712;2023-05-10T09:15:45;17.40;82.40
25352;DHT22;13304;48.464;8.712;2023-05-10T09:18:11;17.40;82.20
25352;DHT22;13304;48.464;8.712;2023-05-10T09:20:37;17.30;82.10
25352;DHT22;13304;48.464;8.712;2023-05-10T09:23:03;17.30;82.60
25352;DHT22;13304;48.464;8.712;2023-05-10T09:25:29;17.20;82.50
25352;DHT22;13304;48.464;8.712;2023-05-10T09:27:55;17.20;81.50
25352;DHT22;13304;48.464;8.712;2023-05-10T09:30:25;17.20;80.90
25352;DHT22;13304;48.464;8.712;2023-05-10T09:32:52;17.10;80.90
25352;DHT22;13304;48.464;8.712;2023-05-10T09:35:20;17.10;81.40
25352;DHT22;13304;48.464;8.712;2023-05-10T09:37:48;17.20;82.30
25352;DHT22;13304;48.464;8.712;2023-05-10T09:40:22;17.20;84.00
25352;DHT22;13304;48.464;8.712;2023-05-10T09:42:58;17.20;83.40
25352;DHT22;13304;48.464;8.712;2023-05-10T09:45:25;17.30;82.80
25352;DHT22;13304;48.464;8.712;2023-05-10T09:47:51;17.40;82.30
25352;DHT22;13304;48.464;8.712;2023-05-10T09:50:18;17.40;82.30
25352;DHT22;13304;48.464;8.712;2023-05-10T09:52:51;17.50;82.90
25352;DHT22;13304;48.464;8.712;2023-05-10T09:55:24;17.60;81.40
25352;DHT22;13304;48.464;8.712;2023-05-10T09:57:59;17.60;83.20
25352;DHT22;13304;48.464;8.712;2023-05-10T10:00:25;17.70;82.70
25352;DHT22;13304;48.464;8.712;2023-05-10T10:02:56;17.90;83.40
25352;DHT22;13304;48.464;8.712;2023-05-10T10:05:34;17.90;82.80
25352;DHT22;13304;48.464;8.712;2023-05-10T10:08:03;18.00;82.70
25352;DHT22;13304;48.464;8.712;2023-05-10T10:10:31;18.10;82.60
25352;DHT22;13304;48.464;8.712;2023-05-10T10:12:57;18.20;83.10
25352;DHT22;13304;48.464;8.712;2023-05-10T10:15:24;18.30;81.80
25352;DHT22;13304;48.464;8.712;2023-05-10T10:17:51;18.30;79.40
25352;DHT22;13304;48.464;8.712;2023-05-10T10:20:18;18.40;79.10
25352;DHT22;13304;48.464;8.712;2023-05-10T10:22:44;18.20;71.70
25352;DHT22;13304;48.464;8.712;2023-05-10T10:25:12;18.20;70.60
25352;DHT22;13304;48.464;8.712;2023-05-10T10:30:43;17.90;67.90
25352;DHT22;13304;48.464;8.712;2023-05-10T10:35:52;17.70;70.70
25352;DHT22;13304;48.464;8.712;2023-05-10T10:38:18;17.60;71.20
25352;DHT22;13304;48.464;8.712;2023-05-10T10:40:44;17.50;71.70
25352;DHT22;13304;48.464;8.712;2023-05-10T10:46:14;17.30;69.90
25352;DHT22;13304;48.464;8.712;2023-05-10T10:48:48;17.20;70.20
25352;DHT22;13304;48.464;8.712;2023-05-10T10:51:15;17.10;72.10
25352;DHT22;13304;48.464;8.712;2023-05-10T10:53:41;17.10;73.00
25352;DHT22;13304;48.464;8.712;2023-05-10T10:56:11;17.00;72.90
25352;DHT22;13304;48.464;8.712;2023-05-10T10:58:39;16.90;73.50
25352;DHT22;13304;48.464;8.712;2023-05-10T11:01:15;16.90;75.10
25352;DHT22;13304;48.464;8.712;2023-05-10T11:06:40;16.70;75.60
25352;DHT22;13304;48.464;8.712;2023-05-10T11:09:10;16.70;76.30
25352;DHT22;13304;48.464;8.712;2023-05-10T11:11:48;16.70;77.60
25352;DHT22;13304;48.464;8.712;2023-05-10T11:14:20;16.60;77.80
25352;DHT22;13304;48.464;8.712;2023-05-10T11:16:46;16.50;78.20
25352;DHT22;13304;48.464;8.712;2023-05-10T11:19:13;16.50;78.00
25352;DHT22;13304;48.464;8.712;2023-05-10T11:21:51;16.40;78.10
25352;DHT22;13304;48.464;8.712;2023-05-10T11:24:19;16.40;78.10
25352;DHT22;13304;48.464;8.712;2023-05-10T11:26:45;16.40;77.60
25352;DHT22;13304;48.464;8.712;2023-05-10T11:29:13;16.40;77.70
25352;DHT22;13304;48.464;8.712;2023-05-10T11:31:46;16.40;77.50
25352;DHT22;13304;48.464;8.712;2023-05-10T11:34:23;16.40;77.60
25352;DHT22;13304;48.464;8.712;2023-05-10T11:36:53;16.40;77.30
25352;DHT22;13304;48.464;8.712;2023-05-10T11:39:20;16.50;79.40
25352;DHT22;13304;48.464;8.712;2023-05-10T11:41:49;16.60;79.30
25352;DHT22;13304;48.464;8.712;2023-05-10T11:44:15;16.60;79.30
25352;DHT22;13304;48.464;8.712;2023-05-10T11:46:41;16.70;80.50
25352;DHT22;13304;48.464;8.712;2023-05-10T11:49:08;16.70;78.90
25352;DHT22;13304;48.464;8.712;2023-05-10T11:51:35;16.70;79.00
25352;DHT22;13304;48.464;8.712;2023-05-10T11:54:11;16.80;79.40
25352;DHT22;13304;48.464;8.712;2023-05-10T11:56:38;16.90;80.00
25352;DHT22;13304;48.464;8.712;2023-05-10T11:59:04;16.90;79.70
25352;DHT22;13304;48.464;8.712;2023-05-10T12:01:56;17.00;80.00
25352;DHT22;13304;48.464;8.712;2023-05-10T12:04:22;17.10;78.60
25352;DHT22;13304;48.464;8.712;2023-05-10T12:06:48;17.20;79.90
25352;DHT22;13304;48.464;8.712;2023-05-10T12:09:14;17.20;80.00
25352;DHT22;13304;48.464;8.712;2023-05-10T12:11:40;17.30;80.00
25352;DHT22;13304;48.464;8.712;2023-05-10T12:14:08;17.40;78.70
25352;DHT22;13304;48.464;8.712;2023-05-10T12:19:51;17.50;75.80
25352;DHT22;13304;48.464;8.712;2023-05-10T12:22:20;17.60;78.40
25352;DHT22;13304;48.464;8.712;2023-05-10T12:24:46;17.60;76.70
25352;DHT22;13304;48.464;8.712;2023-05-10T12:27:12;17.70;77.40
25352;DHT22;13304;48.464;8.712;2023-05-10T12:29:41;17.70;77.80
25352;DHT22;13304;48.464;8.712;2023-05-10T12:32:09;17.70;78.10
25352;DHT22;13304;48.464;8.712;2023-05-10T12:34:35;17.80;78.70
25352;DHT22;13304;48.464;8.712;2023-05-10T12:37:04;17.80;78.20
25352;DHT22;13304;48.464;8.712;2023-05-10T12:39:45;17.90;78.40
25352;DHT22;13304;48.464;8.712;2023-05-10T12:42:11;17.80;74.90
25352;DHT22;13304;48.464;8.712;2023-05-10T12:44:38;17.90;77.50
25352;DHT22;13304;48.464;8.712;2023-05-10T12:47:03;18.00;77.10
25352;DHT22;13304;48.464;8.712;2023-05-10T12:49:29;18.00;76.40
25352;DHT22;13304;48.464;8.712;2023-05-10T12:51:55;18.10;76.10
25352;DHT22;13304;48.464;8.712;2023-05-10T12:54:20;18.10;76.50
25352;DHT22;13304;48.464;8.712;2023-05-10T12:56:46;18.20;77.40
25352;DHT22;13304;48.464;8.712;2023-05-10T12:59:12;18.30;76.30
25352;DHT22;13304;48.464;8.712;2023-05-10T13:01:38;18.30;74.00
25352;DHT22;13304;48.464;8.712;2023-05-10T13:04:04;18.40;74.60
25352;DHT22;13304;48.464;8.712;2023-05-10T13:06:29;18.40;72.60
25352;DHT22;13304;48.464;8.712;2023-05-10T13:08:56;18.40;69.20
25352;DHT22;13304;48.464;8.712;2023-05-10T13:11:23;18.40;70.70
25352;DHT22;13304;48.464;8.712;2023-05-10T13:13:48;18.40;70.70
25352;DHT22;13304;48.464;8.712;2023-05-10T13:16:14;18.40;71.00
25352;DHT22;13304;48.464;8.712;2023-05-10T13:18:40;18.50;71.30
25352;DHT22;13304;48.464;8.712;2023-05-10T13:21:05;18.40;71.10
25352;DHT22;13304;48.464;8.712;2023-05-10T13:23:33;18.40;70.30
25352;DHT22;13304;48.464;8.712;2023-05-10T13:25:59;18.50;70.60
25352;DHT22;13304;48.464;8.712;2023-05-10T13:28:25;18.50;71.00
25352;DHT22;13304;48.464;8.712;2023-05-10T13:30:51;18.50;71.10
25352;DHT22;13304;48.464;8.712;2023-05-10T13:33:17;18.60;71.70
25352;DHT22;13304;48.464;8.712;2023-05-10T13:35:43;18.60;72.10
25352;DHT22;13304;48.464;8.712;2023-05-10T13:38:09;18.70;70.40
25352;DHT22;13304;48.464;8.712;2023-05-10T13:40:35;18.60;68.60
25352;DHT22;13304;48.464;8.712;2023-05-10T13:43:01;18.70;69.40
25352;DHT22;13304;48.464;8.712;2023-05-10T13:45:27;18.70;69.50
25352;DHT22;13304;48.464;8.712;2023-05-10T13:47:53;18.70;69.60
25352;DHT22;13304;48.464;8.712;2023-05-10T13:50:19;18.70;70.50
25352;DHT22;13304;48.464;8.712;2023-05-10T13:52:44;18.80;70.00
25352;DHT22;13304;48.464;8.712;2023-05-10T13:55:10;18.80;70.20
25352;DHT22;13304;48.464;8.712;2023-05-10T13:57:38;18.80;69.70
25352;DHT22;13304;48.464;8.712;2023-05-10T14:00:04;18.80;66.30
25352;DHT22;13304;48.464;8.712;2023-05-10T14:02:30;18.80;67.50
25352;DHT22;13304;48.464;8.712;2023-05-10T14:04:56;18.80;67.50
25352;DHT22;13304;48.464;8.712;2023-05-10T14:07:22;18.70;67.20
25352;DHT22;13304;48.464;8.712;2023-05-10T14:09:48;18.80;67.40
25352;DHT22;13304;48.464;8.712;2023-05-10T14:12:14;18.70;67.50
25352;DHT22;13304;48.464;8.712;2023-05-10T14:14:40;18.80;66.70
25352;DHT22;13304;48.464;8.712;2023-05-10T14:17:05;18.80;67.90
25352;DHT22;13304;48.464;8.712;2023-05-10T14:19:31;18.80;68.50
25352;DHT22;13304;48.464;8.712;2023-05-10T14:21:59;18.80;67.60
25352;DHT22;13304;48.464;8.712;2023-05-10T14:24:24;18.80;66.70
25352;DHT22;13304;48.464;8.712;2023-05-10T14:26:50;18.80;67.00
25352;DHT22;13304;48.464;8.712;2023-05-10T14:29:19;18.80;66.90
25352;DHT22;13304;48.464;8.712;2023-05-10T14:31:45;18.90;68.00
25352;DHT22;13304;48.464;8.712;2023-05-10T14:34:11;18.80;67.00
25352;DHT22;13304;48.464;8.712;2023-05-10T14:36:37;18.90;67.10
25352;DHT22;13304;48.464;8.712;2023-05-10T14:39:03;18.90;67.30
25352;DHT22;13304;48.464;8.712;2023-05-10T14:41:29;18.90;67.60
25352;DHT22;13304;48.464;8.712;2023-05-10T14:43:55;18.90;67.40
25352;DHT22;13304;48.464;8.712;2023-05-10T14:46:21;18.90;66.70
25352;DHT22;13304;48.464;8.712;2023-05-10T14:48:47;18.80;66.80
25352;DHT22;13304;48.464;8.712;2023-05-10T14:51:13;18.80;67.00
25352;DHT22;13304;48.464;8.712;2023-05-10T14:53:38;18.80;66.80
25352;DHT22;13304;48.464;8.712;2023-05-10T14:56:04;18.70;67.30
25352;DHT22;13304;48.464;8.712;2023-05-10T14:58:30;18.60;65.20
25352;DHT22;13304;48.464;8.712;2023-05-10T15:00:56;18.60;66.00
25352;DHT22;13304;48.464;8.712;2023-05-10T15:03:22;18.50;66.90
25352;DHT22;13304;48.464;8.712;2023-05-10T15:05:48;18.40;67.20
25352;DHT22;13304;48.464;8.712;2023-05-10T15:08:14;18.40;68.50
25352;DHT22;13304;48.464;8.712;2023-05-10T15:10:40;18.30;69.10
25352;DHT22;13304;48.464;8.712;2023-05-10T15:13:05;18.30;69.80
25352;DHT22;13304;48.464;8.712;2023-05-10T15:15:31;18.30;70.80
25352;DHT22;13304;48.464;8.712;2023-05-10T15:17:57;18.30;71.20
25352;DHT22;13304;48.464;8.712;2023-05-10T15:20:22;18.30;71.30
25352;DHT22;13304;48.464;8.712;2023-05-10T15:22:48;18.20;69.40
25352;DHT22;13304;48.464;8.712;2023-05-10T15:25:14;18.20;69.70
25352;DHT22;13304;48.464;8.712;2023-05-10T15:27:41;18.20;70.10
25352;DHT22;13304;48.464;8.712;2023-05-10T15:30:09;18.20;70.50
25352;DHT22;13304;48.464;8.712;2023-05-10T15:32:35;18.10;70.20
25352;DHT22;13304;48.464;8.712;2023-05-10T15:35:01;18.10;71.10
25352;DHT22;13304;48.464;8.712;2023-05-10T15:37:28;18.00;71.00
25352;DHT22;13304;48.464;8.712;2023-05-10T15:39:53;18.00;70.90
25352;DHT22;13304;48.464;8.712;2023-05-10T15:42:19;18.00;72.00
25352;DHT22;13304;48.464;8.712;2023-05-10T15:44:45;17.90;70.30
25352;DHT22;13304;48.464;8.712;2023-05-10T15:47:15;17.90;69.50
25352;DHT22;13304;48.464;8.712;2023-05-10T15:49:41;17.80;70.00
25352;DHT22;13304;48.464;8.712;2023-05-10T15:52:06;17.80;71.00
25352;DHT22;13304;48.464;8.712;2023-05-10T15:54:32;17.70;71.10
25352;DHT22;13304;48.464;8.712;2023-05-10T15:56:58;17.70;70.90
25352;DHT22;13304;48.464;8.712;2023-05-10T15:59:24;17.60;71.60
25352;DHT22;13304;48.464;8.712;2023-05-10T16:01:50;17.60;71.20